Time;durP1;ratioP1;P1;durP2;ratioP2;P2;SDS_P1;SDS_P2;PMS_P1;PMS_P2;Temp;Humidity;BMP_temperature;BMP_pressure;BME280_temperature;BME280_humidity;BME280_pressure;Samples;Min_cycle;Max_cycle;Signal;HPM_P1;HPM_P2
2022/05/31 00:01:57;;;;;;;4.15;3.08;;;8.70;85.80;;;;;;5032522;28;20497;-74
2022/05/31 00:04:23;;;;;;;5.80;3.67;;;8.60;85.70;;;;;;5065740;28;20125;-75
2022/05/31 00:06:48;;;;;;;5.95;3.33;;;8.60;85.80;;;;;;5032813;28;20127;-75
2022/05/31 00:09:14;;;;;;;4.00;3.20;;;8.60;85.90;;;;;;5032103;28;20144;-77
2022/05/31 00:11:41;;;;;;;5.28;3.15;;;8.50;85.90;;;;;;5032270;28;20037;-76
2022/05/31 00:14:08;;;;;;;5.20;4.22;;;8.60;86.00;;;;;;5032405;28;20068;-74
2022/05/31 00:16:34;;;;;;;7.65;3.20;;;8.60;86.00;;;;;;5032325;28;20038;-75
2022/05/31 00:18:59;;;;;;;3.88;3.30;;;8.50;86.10;;;;;;5032174;28;20037;-75
2022/05/31 00:21:36;;;;;;;6.35;2.90;;;8.50;86.00;;;;;;5032169;28;20048;-77
2022/05/31 00:24:01;;;;;;;3.83;3.10;;;8.50;86.00;;;;;;5032238;28;20045;-75
2022/05/31 00:26:27;;;;;;;3.97;3.00;;;8.50;86.10;;;;;;5032069;28;20046;-76
2022/05/31 00:28:52;;;;;;;3.28;2.80;;;8.50;86.00;;;;;;4999266;28;20044;-76
2022/05/31 00:31:18;;;;;;;2.80;2.47;;;8.50;85.90;;;;;;5031994;28;20045;-75
2022/05/31 00:33:44;;;;;;;3.08;2.72;;;8.50;85.90;;;;;;5015643;28;20123;-75
2022/05/31 00:36:10;;;;;;;3.03;2.72;;;8.50;85.80;;;;;;5032280;28;20128;-74
2022/05/31 00:38:35;;;;;;;3.67;2.58;;;8.50;86.00;;;;;;5031909;28;20469;-75
2022/05/31 00:41:25;;;;;;;2.45;2.20;;;8.40;86.10;;;;;;5032156;28;20041;-76
2022/05/31 00:44:00;;;;;;;3.30;2.65;;;8.40;86.10;;;;;;5065291;28;20103;-74
2022/05/31 00:46:53;;;;;;;3.70;3.22;;;8.30;86.10;;;;;;5016610;28;20053;-75
2022/05/31 00:49:39;;;;;;;3.20;2.75;;;8.30;86.30;;;;;;5032044;28;20053;-75
2022/05/31 00:52:21;;;;;;;3.35;2.88;;;8.30;86.40;;;;;;5031797;28;20049;-75
2022/05/31 00:55:24;;;;;;;3.42;2.67;;;8.20;86.50;;;;;;5015351;28;20045;-75
2022/05/31 00:57:59;;;;;;;6.03;3.45;;;8.30;86.70;;;;;;5031727;28;20107;-76
2022/05/31 01:00:25;;;;;;;4.20;3.30;;;8.30;86.70;;;;;;5015299;28;20124;-74
2022/05/31 01:02:51;;;;;;;4.22;3.38;;;8.20;86.90;;;;;;5031581;28;20149;-75
2022/05/31 01:05:19;;;;;;;4.50;4.10;;;8.20;86.80;;;;;;5015488;28;20044;-75
2022/05/31 01:07:46;;;;;;;3.90;3.50;;;8.20;86.80;;;;;;5065138;28;20042;-75
2022/05/31 01:10:13;;;;;;;4.90;3.00;;;8.20;86.90;;;;;;5031609;28;20042;-74
2022/05/31 01:12:42;;;;;;;3.90;3.45;;;8.20;87.00;;;;;;5065012;28;20046;-75
2022/05/31 01:15:12;;;;;;;9.13;3.22;;;8.10;87.00;;;;;;5031559;28;20049;-75
2022/05/31 01:17:40;;;;;;;3.55;3.25;;;8.10;86.90;;;;;;5031545;28;20042;-74
2022/05/31 01:20:08;;;;;;;4.95;3.47;;;8.10;86.90;;;;;;5031499;28;20073;-76
2022/05/31 01:22:47;;;;;;;3.95;3.10;;;8.10;86.90;;;;;;5035156;28;20417;-75
2022/05/31 01:25:21;;;;;;;4.10;3.00;;;8.10;86.90;;;;;;5019069;28;20064;-74
2022/05/31 01:28:09;;;;;;;5.32;3.40;;;8.10;87.00;;;;;;5035448;28;20045;-75
2022/05/31 01:31:03;;;;;;;5.65;3.45;;;8.10;87.20;;;;;;5035323;28;20099;-75
2022/05/31 01:33:40;;;;;;;5.35;3.60;;;8.20;87.20;;;;;;5031441;28;20049;-75
2022/05/31 01:36:24;;;;;;;5.57;3.20;;;8.20;87.20;;;;;;5035590;28;20401;-74
2022/05/31 01:39:05;;;;;;;3.75;3.15;;;8.20;87.40;;;;;;5068609;28;20045;-75
2022/05/31 01:41:44;;;;;;;4.95;3.75;;;8.30;87.40;;;;;;5035227;28;20041;-76
2022/05/31 01:44:13;;;;;;;4.00;3.45;;;8.30;87.40;;;;;;5018947;28;20399;-73
2022/05/31 01:46:39;;;;;;;7.25;3.33;;;8.30;87.60;;;;;;5035419;28;20448;-77
2022/05/31 01:49:08;;;;;;;3.75;3.10;;;8.30;87.70;;;;;;5068567;28;20390;-74
2022/05/31 01:51:37;;;;;;;4.18;3.28;;;8.40;87.70;;;;;;5018414;28;20049;-75
2022/05/31 01:54:04;;;;;;;3.83;3.35;;;8.40;87.70;;;;;;5068615;28;20049;-74
2022/05/31 01:56:31;;;;;;;5.03;3.28;;;8.40;87.60;;;;;;5034971;28;20041;-74
2022/05/31 01:58:58;;;;;;;3.30;3.00;;;8.40;87.80;;;;;;5034838;28;20041;-75
2022/05/31 02:01:25;;;;;;;4.88;3.30;;;8.40;87.70;;;;;;5068186;28;20140;-74
2022/05/31 02:03:51;;;;;;;4.00;2.90;;;8.40;87.60;;;;;;5051487;28;20053;-75
2022/05/31 02:06:26;;;;;;;4.00;3.35;;;8.40;87.50;;;;;;5034712;28;20100;-73
2022/05/31 02:08:51;;;;;;;;;;;8.40;87.50;;;;;;5035061;28;20508;-74
2022/05/31 02:11:17;;;;;;;4.53;3.38;;;8.30;87.90;;;;;;5051146;28;20004;-74
2022/05/31 02:13:42;;;;;;;4.55;3.15;;;8.30;87.60;;;;;;5001860;28;20037;-75
2022/05/31 02:16:08;;;;;;;3.85;3.17;;;8.30;87.50;;;;;;5018083;28;20033;-75
2022/05/31 02:21:18;;;;;;;3.78;3.10;;;8.40;87.60;;;;;;5034483;28;20505;-74
2022/05/31 02:23:43;;;;;;;4.30;3.67;;;8.40;87.70;;;;;;5017954;28;20049;-74
2022/05/31 02:26:09;;;;;;;3.45;3.13;;;8.40;87.70;;;;;;5034418;28;20045;-74
2022/05/31 02:28:35;;;;;;;5.00;3.38;;;8.50;87.70;;;;;;5034236;28;20045;-76
2022/05/31 02:31:00;;;;;;;4.80;3.70;;;8.50;87.80;;;;;;5017828;28;20045;-75
2022/05/31 02:33:26;;;;;;;4.53;3.88;;;8.50;87.90;;;;;;5033942;28;20030;-76
2022/05/31 02:35:52;;;;;;;4.35;3.50;;;8.50;87.90;;;;;;5034423;28;20477;-73
2022/05/31 02:38:17;;;;;;;4.00;3.58;;;8.60;88.00;;;;;;5034168;28;20060;-75
2022/05/31 02:40:43;;;;;;;5.63;3.58;;;8.60;88.00;;;;;;5034145;28;20488;-75
2022/05/31 02:43:09;;;;;;;4.85;3.05;;;8.60;88.00;;;;;;5034107;28;20049;-73
2022/05/31 02:45:34;;;;;;;5.28;3.70;;;8.70;88.10;;;;;;5034239;28;20120;-74
2022/05/31 02:48:00;;;;;;;4.30;3.42;;;8.70;88.00;;;;;;5033864;28;20485;-74
2022/05/31 02:50:26;;;;;;;3.90;3.47;;;8.70;87.90;;;;;;5033887;28;20092;-76
2022/05/31 02:52:52;;;;;;;4.50;3.53;;;8.70;88.20;;;;;;5017422;28;20057;-75
2022/05/31 02:55:18;;;;;;;4.00;3.60;;;8.70;88.20;;;;;;5017679;28;20046;-75
2022/05/31 02:57:43;;;;;;;5.00;3.17;;;8.80;88.40;;;;;;5033718;28;20091;-74
2022/05/31 03:00:10;;;;;;;3.80;3.33;;;8.80;88.20;;;;;;5033999;28;20033;-77
2022/05/31 03:02:37;;;;;;;3.47;3.15;;;8.90;88.30;;;;;;5050381;28;20398;-74
2022/05/31 03:05:04;;;;;;;4.70;3.03;;;8.90;88.20;;;;;;5033930;28;20130;-73
2022/05/31 03:07:30;;;;;;;4.82;4.00;;;8.90;88.20;;;;;;5017171;28;20509;-76
2022/05/31 03:09:55;;;;;;;5.15;3.75;;;8.90;88.20;;;;;;5033628;28;20069;-75
2022/05/31 03:12:24;;;;;;;5.85;3.58;;;9.00;88.30;;;;;;5033500;28;20411;-74
2022/05/31 03:14:53;;;;;;;4.07;3.55;;;9.00;88.30;;;;;;5033489;28;20037;-76
2022/05/31 03:17:35;;;;;;;5.53;3.42;;;9.00;88.30;;;;;;5066960;28;20046;-76
2022/05/31 03:20:34;;;;;;;5.50;3.15;;;9.00;88.10;;;;;;5033443;28;20041;-75
2022/05/31 03:23:15;;;;;;;4.50;3.35;;;9.00;88.10;;;;;;5025476;28;20114;-76
2022/05/31 03:25:42;;;;;;;4.28;3.38;;;9.00;88.20;;;;;;5033541;28;20080;-76
2022/05/31 03:28:10;;;;;;;3.67;3.10;;;9.00;88.40;;;;;;5033299;28;20041;-75
2022/05/31 03:30:37;;;;;;;4.95;3.60;;;9.00;88.30;;;;;;5066092;28;20063;-75
2022/05/31 03:33:06;;;;;;;5.10;3.58;;;9.10;88.30;;;;;;5066100;28;20052;-74
2022/05/31 03:35:31;;;;;;;6.22;3.45;;;9.10;88.30;;;;;;5032708;28;20073;-73
2022/05/31 03:37:57;;;;;;;4.75;3.40;;;9.10;88.50;;;;;;5032887;28;20124;-76
2022/05/31 03:43:07;;;;;;;4.50;3.33;;;9.10;88.50;;;;;;5032570;28;20045;-75
2022/05/31 03:45:41;;;;;;;4.07;3.20;;;9.20;88.60;;;;;;5032504;28;20457;-75
2022/05/31 03:48:09;;;;;;;4.40;3.28;;;9.20;88.30;;;;;;5033000;28;20049;-75
2022/05/31 03:50:35;;;;;;;5.45;3.80;;;9.20;88.60;;;;;;5032960;28;20045;-75
2022/05/31 03:53:01;;;;;;;5.20;4.05;;;9.20;88.50;;;;;;5016303;28;20099;-76
2022/05/31 03:55:27;;;;;;;4.10;3.17;;;9.20;88.40;;;;;;5032739;28;20050;-75
2022/05/31 03:57:53;;;;;;;4.43;3.50;;;9.30;88.50;;;;;;5016331;28;20132;-74
2022/05/31 04:00:19;;;;;;;4.72;3.40;;;9.30;88.50;;;;;;5032642;28;20037;-76
2022/05/31 04:02:46;;;;;;;5.15;3.67;;;9.30;88.60;;;;;;5030294;28;20062;-74
2022/05/31 04:05:12;;;;;;;4.38;3.75;;;9.30;88.50;;;;;;5032699;28;20111;-75
2022/05/31 04:07:38;;;;;;;4.85;3.55;;;9.40;88.60;;;;;;5065682;28;20041;-75
2022/05/31 04:10:06;;;;;;;6.60;3.80;;;9.30;88.80;;;;;;5032433;28;20045;-75
2022/05/31 04:12:36;;;;;;;4.63;4.15;;;9.40;88.80;;;;;;5065529;28;20071;-75
2022/05/31 04:15:02;;;;;;;4.72;3.20;;;9.40;88.60;;;;;;5032363;28;20030;-74
2022/05/31 04:17:28;;;;;;;4.38;3.88;;;9.40;88.60;;;;;;5032517;28;20191;-75
2022/05/31 04:19:53;;;;;;;6.80;3.92;;;9.40;88.60;;;;;;5032240;28;20466;-77
2022/05/31 04:22:19;;;;;;;5.72;4.20;;;9.40;88.70;;;;;;5015858;28;20045;-75
2022/05/31 04:24:45;;;;;;;4.35;3.80;;;9.50;88.70;;;;;;5032443;28;20121;-74
2022/05/31 04:27:18;;;;;;;7.80;4.30;;;9.50;88.70;;;;;;5032109;28;20041;-76
2022/05/31 04:29:43;;;;;;;5.07;4.05;;;9.50;88.60;;;;;;5032064;28;20072;-77
2022/05/31 04:32:09;;;;;;;8.43;4.43;;;9.50;88.70;;;;;;5032005;28;20160;-74
2022/05/31 04:34:35;;;;;;;6.72;4.28;;;9.50;88.60;;;;;;5032021;28;20046;-76
2022/05/31 04:37:01;;;;;;;4.78;3.83;;;9.50;88.60;;;;;;5032191;28;20045;-76
2022/05/31 04:39:27;;;;;;;4.18;3.78;;;9.50;88.60;;;;;;5031962;28;20453;-74
2022/05/31 04:41:52;;;;;;;4.85;4.35;;;9.60;88.60;;;;;;5031935;28;20049;-76
2022/05/31 04:44:18;;;;;;;5.97;3.53;;;9.50;88.60;;;;;;5031872;28;20059;-74
2022/05/31 04:46:44;;;;;;;5.05;3.10;;;9.60;88.60;;;;;;5032014;28;20072;-75
2022/05/31 04:49:11;;;;;;;5.55;4.05;;;9.60;88.60;;;;;;5032091;28;20393;-75
2022/05/31 04:51:37;;;;;;;4.93;3.88;;;9.60;88.50;;;;;;5031735;28;20535;-75
2022/05/31 04:54:04;;;;;;;5.18;4.40;;;9.60;88.60;;;;;;5015329;28;20107;-75
2022/05/31 04:56:30;;;;;;;4.15;3.72;;;9.60;88.50;;;;;;5031988;28;20048;-75
2022/05/31 04:58:57;;;;;;;4.18;3.78;;;9.70;88.50;;;;;;5015722;28;20501;-75
2022/05/31 05:01:23;;;;;;;5.30;4.15;;;9.70;88.40;;;;;;5034994;28;20202;-77
2022/05/31 05:03:50;;;;;;;4.45;3.85;;;9.80;88.30;;;;;;5068822;28;20041;-76
2022/05/31 05:06:18;;;;;;;5.15;4.00;;;9.80;88.30;;;;;;5068689;28;20396;-76
2022/05/31 05:08:44;;;;;;;4.25;3.83;;;9.80;88.40;;;;;;5019366;28;20646;-75
2022/05/31 05:11:12;;;;;;;6.00;3.55;;;9.90;88.50;;;;;;5065301;28;20084;-75
2022/05/31 05:13:39;;;;;;;3.97;3.58;;;10.00;88.40;;;;;;5032794;28;20140;-75
2022/05/31 05:16:06;;;;;;;6.38;4.68;;;10.00;88.30;;;;;;5068370;28;20048;-75
2022/05/31 05:18:34;;;;;;;5.35;3.70;;;10.00;88.20;;;;;;5068524;28;20041;-76
2022/05/31 05:21:01;;;;;;;4.32;3.92;;;10.00;88.10;;;;;;5068345;28;20099;-74
2022/05/31 05:23:27;;;;;;;5.00;3.63;;;10.00;88.00;;;;;;5068541;28;20041;-74
2022/05/31 05:25:55;;;;;;;6.38;4.00;;;10.00;87.80;;;;;;5035371;28;20400;-74
2022/05/31 05:31:06;;;;;;;;;;;10.00;87.70;;;;;;5069094;28;20460;-74
2022/05/31 05:33:32;;;;;;;5.72;4.00;;;9.90;87.50;;;;;;5068531;28;20011;-74
2022/05/31 05:35:58;;;;;;;4.50;4.10;;;10.00;87.30;;;;;;5068440;28;20049;-75
2022/05/31 05:38:24;;;;;;;5.47;4.90;;;10.00;87.10;;;;;;5068539;28;20037;-76
2022/05/31 05:40:50;;;;;;;5.20;4.00;;;10.00;87.00;;;;;;5051858;28;20397;-73
2022/05/31 05:43:16;;;;;;;5.32;3.80;;;10.00;87.00;;;;;;5068182;28;20106;-77
2022/05/31 05:45:42;;;;;;;4.95;3.88;;;9.90;86.90;;;;;;5068153;28;20049;-75
2022/05/31 05:48:08;;;;;;;5.72;3.35;;;10.00;86.80;;;;;;5068379;28;20405;-74
2022/05/31 05:50:36;;;;;;;5.35;3.90;;;10.00;86.80;;;;;;5051355;28;20055;-75
2022/05/31 05:53:04;;;;;;;5.35;3.70;;;10.00;86.70;;;;;;5018304;28;20531;-78
2022/05/31 05:55:30;;;;;;;4.15;3.67;;;10.10;86.60;;;;;;5068419;28;20037;-76
2022/05/31 05:57:56;;;;;;;4.28;3.25;;;10.10;86.60;;;;;;5035161;28;20063;-75
2022/05/31 06:00:22;;;;;;;5.47;3.80;;;10.10;86.50;;;;;;5068026;28;20477;-74
2022/05/31 06:03:01;;;;;;;6.30;4.18;;;10.10;86.50;;;;;;5064566;28;20049;-77
2022/05/31 06:05:29;;;;;;;4.32;3.72;;;10.10;86.40;;;;;;5031552;28;20049;-76
2022/05/31 06:08:04;;;;;;;4.63;3.80;;;10.20;86.10;;;;;;5033847;28;20132;-75
2022/05/31 06:10:36;;;;;;;6.13;4.00;;;10.20;86.10;;;;;;5018599;28;20053;-76
2022/05/31 06:13:17;;;;;;;6.45;4.38;;;10.30;86.30;;;;;;5035156;28;20033;-77
2022/05/31 06:15:48;;;;;;;5.10;4.05;;;10.30;86.40;;;;;;5068393;28;20037;-75
2022/05/31 06:18:28;;;;;;;6.60;5.10;;;10.40;86.40;;;;;;5035011;28;20494;-76
2022/05/31 06:21:00;;;;;;;5.88;4.13;;;10.50;86.40;;;;;;5034978;28;20045;-75
2022/05/31 06:23:26;;;;;;;4.90;4.40;;;10.50;86.40;;;;;;5035122;28;20041;-76
2022/05/31 06:25:52;;;;;;;6.20;4.22;;;10.50;86.40;;;;;;5068228;28;20182;-74
2022/05/31 06:28:18;;;;;;;4.68;4.28;;;10.60;86.40;;;;;;5034493;28;20470;-75
2022/05/31 06:30:43;;;;;;;7.40;4.50;;;10.60;86.30;;;;;;5018031;28;20107;-76
2022/05/31 06:33:09;;;;;;;6.65;4.72;;;10.70;86.40;;;;;;5034393;28;20383;-74
2022/05/31 06:35:36;;;;;;;4.45;3.42;;;10.80;86.70;;;;;;5034440;28;20041;-75
2022/05/31 06:38:02;;;;;;;5.18;3.17;;;10.80;86.60;;;;;;5034729;28;20437;-75
2022/05/31 06:40:29;;;;;;;6.63;4.63;;;10.90;86.50;;;;;;5034492;28;20122;-74
2022/05/31 06:42:54;;;;;;;6.38;4.28;;;11.00;86.50;;;;;;5068004;28;20041;-76
2022/05/31 06:45:20;;;;;;;4.72;4.15;;;11.00;86.40;;;;;;5015395;28;20561;-75
2022/05/31 06:47:46;;;;;;;3.45;3.13;;;11.00;86.20;;;;;;5039423;28;20116;-75
2022/05/31 06:50:12;;;;;;;4.75;3.05;;;11.00;85.80;;;;;;5037490;28;20037;-76
2022/05/31 06:58:07;;;;;;;3.83;3.42;;;11.10;84.80;;;;;;5040342;28;20067;-73
2022/05/31 07:00:33;;;;;;;5.10;3.72;;;11.30;85.00;;;;;;5033935;28;20136;-74
2022/05/31 07:02:59;;;;;;;4.93;3.80;;;11.40;84.60;;;;;;5018755;28;20064;-77
2022/05/31 07:05:26;;;;;;;4.97;3.63;;;11.50;84.70;;;;;;5037551;28;20566;-76
2022/05/31 07:07:52;;;;;;;6.05;3.88;;;11.50;84.70;;;;;;5036498;28;20389;-74
2022/05/31 07:10:18;;;;;;;4.07;3.38;;;11.60;84.40;;;;;;5020248;28;20045;-74
2022/05/31 07:12:44;;;;;;;4.80;3.70;;;11.80;84.40;;;;;;5021392;28;20049;-76
2022/05/31 07:15:16;;;;;;;4.30;3.42;;;11.90;82.90;;;;;;5038984;28;20389;-73
2022/05/31 07:17:42;;;;;;;5.45;3.72;;;12.10;83.40;;;;;;5035387;28;20546;-75
2022/05/31 07:20:09;;;;;;;5.80;3.78;;;12.20;81.80;;;;;;5019860;28;20053;-74
2022/05/31 07:22:36;;;;;;;5.22;3.80;;;12.30;81.90;;;;;;5036976;28;20099;-75
2022/05/31 07:25:02;;;;;;;5.28;3.90;;;12.50;81.50;;;;;;5041059;28;20057;-75
2022/05/31 07:27:28;;;;;;;5.63;3.63;;;12.50;81.10;;;;;;5036968;28;20144;-75
2022/05/31 07:29:54;;;;;;;7.63;4.00;;;12.60;80.70;;;;;;5022577;28;20132;-75
2022/05/31 07:32:20;;;;;;;6.22;4.05;;;12.80;81.30;;;;;;5036427;28;20115;-75
2022/05/31 07:34:46;;;;;;;5.53;3.78;;;13.00;80.50;;;;;;5038854;28;20076;-74
2022/05/31 07:37:13;;;;;;;6.63;4.15;;;13.10;80.40;;;;;;5018592;28;20520;-74
2022/05/31 07:39:39;;;;;;;4.97;3.47;;;13.30;79.20;;;;;;5024700;28;20045;-76
2022/05/31 07:42:05;;;;;;;5.43;4.57;;;13.50;79.30;;;;;;5017051;28;20524;-75
2022/05/31 07:44:30;;;;;;;6.68;3.85;;;13.60;78.70;;;;;;5037792;28;20053;-75
2022/05/31 07:46:58;;;;;;;6.28;3.80;;;13.80;78.10;;;;;;5038762;28;20068;-75
2022/05/31 07:49:24;;;;;;;6.55;3.83;;;14.00;78.00;;;;;;5038712;28;20049;-76
2022/05/31 07:51:50;;;;;;;8.10;3.90;;;14.00;77.40;;;;;;5020264;28;20045;-77
2022/05/31 07:54:16;;;;;;;6.13;4.63;;;14.20;77.60;;;;;;5016617;28;20083;-74
2022/05/31 07:56:41;;;;;;;5.90;4.15;;;14.20;74.20;;;;;;5020760;28;20037;-76
2022/05/31 07:59:08;;;;;;;5.78;4.00;;;14.30;75.50;;;;;;5020404;28;20053;-74
2022/05/31 08:01:33;;;;;;;5.15;4.28;;;14.40;75.90;;;;;;5037766;28;20072;-74
2022/05/31 08:03:59;;;;;;;6.38;4.00;;;14.50;75.70;;;;;;5036257;28;20417;-75
2022/05/31 08:06:31;;;;;;;8.23;4.10;;;14.50;75.30;;;;;;5037768;28;20049;-76
2022/05/31 08:08:57;;;;;;;5.45;4.03;;;14.50;74.00;;;;;;5035883;28;20077;-76
2022/05/31 08:11:25;;;;;;;4.93;4.07;;;14.60;74.20;;;;;;5037619;28;20623;-77
2022/05/31 08:13:51;;;;;;;4.65;3.55;;;14.70;73.50;;;;;;5022727;28;20056;-75
2022/05/31 08:16:18;;;;;;;5.82;4.53;;;14.70;72.90;;;;;;5036690;28;20060;-72
2022/05/31 08:18:45;;;;;;;9.68;5.18;;;14.80;73.10;;;;;;5037018;28;20158;-78
2022/05/31 08:21:13;;;;;;;5.15;4.40;;;15.00;72.90;;;;;;5037731;28;20725;-77
2022/05/31 08:23:39;;;;;;;5.53;4.70;;;15.10;72.40;;;;;;5036747;28;20057;-74
2022/05/31 08:26:06;;;;;;;6.18;3.60;;;15.20;71.50;;;;;;5048780;28;20049;-77
2022/05/31 08:28:32;;;;;;;5.85;4.03;;;15.20;69.90;;;;;;5052581;28;20045;-76
2022/05/31 08:31:04;;;;;;;6.30;4.18;;;15.30;70.90;;;;;;5052146;28;20087;-78
2022/05/31 08:33:31;;;;;;;6.43;4.53;;;15.50;69.70;;;;;;5052115;28;20117;-77
2022/05/31 08:35:56;;;;;;;6.25;4.65;;;15.60;70.80;;;;;;5052026;28;20473;-75
2022/05/31 08:38:22;;;;;;;5.68;4.40;;;15.60;69.10;;;;;;5052482;28;20154;-77
2022/05/31 08:41:39;;;;;;;5.00;4.45;;;15.80;70.20;;;;;;5052196;28;20527;-75
2022/05/31 08:44:26;;;;;;;8.93;4.57;;;16.00;69.70;;;;;;5019365;28;20052;-74
2022/05/31 08:47:31;;;;;;;9.23;5.25;;;16.10;68.80;;;;;;5052321;28;20052;-75
2022/05/31 08:53:04;;;;;;;5.72;4.57;;;16.30;67.90;;;;;;5051816;28;20052;-74
2022/05/31 08:58:56;;;;;;;6.05;5.30;;;16.50;67.50;;;;;;5051984;28;20045;-77
2022/05/31 09:01:36;;;;;;;7.32;4.82;;;16.60;67.00;;;;;;5044905;28;20447;-77
2022/05/31 09:04:17;;;;;;;8.05;6.15;;;16.70;65.10;;;;;;5038934;28;20106;-74
2022/05/31 09:06:47;;;;;;;7.53;5.53;;;16.70;62.00;;;;;;5055113;28;20127;-75
2022/05/31 09:09:22;;;;;;;8.23;5.60;;;16.70;61.80;;;;;;5038305;28;20678;-76
2022/05/31 09:12:00;;;;;;;6.97;5.63;;;16.70;60.50;;;;;;5054765;28;20045;-78
2022/05/31 09:14:31;;;;;;;8.65;6.00;;;16.80;60.50;;;;;;5054757;28;20037;-75
2022/05/31 09:17:32;;;;;;;11.07;7.07;;;16.70;61.60;;;;;;5055047;28;20123;-77
2022/05/31 09:20:04;;;;;;;8.13;6.65;;;16.60;60.20;;;;;;5054694;28;20040;-75
2022/05/31 09:22:31;;;;;;;10.05;6.47;;;16.50;55.50;;;;;;5038174;28;20040;-77
2022/05/31 09:24:56;;;;;;;10.93;6.78;;;16.80;60.40;;;;;;5054676;28;20040;-74
2022/05/31 09:27:45;;;;;;;7.22;5.93;;;16.80;54.40;;;;;;5054671;28;20451;-78
2022/05/31 09:30:25;;;;;;;11.27;7.60;;;17.00;56.70;;;;;;5054744;28;20037;-76
2022/05/31 09:32:57;;;;;;;7.07;5.97;;;17.20;57.10;;;;;;5038059;28;20081;-76
2022/05/31 09:36:01;;;;;;;12.02;7.05;;;17.50;58.50;;;;;;5054656;28;20048;-76
2022/05/31 09:38:46;;;;;;;7.68;5.80;;;17.50;54.90;;;;;;5050809;28;20051;-73
2022/05/31 09:41:34;;;;;;;10.88;6.72;;;17.60;50.70;;;;;;5054735;28;20052;-76
2022/05/31 09:44:06;;;;;;;9.05;6.32;;;17.70;52.20;;;;;;5058613;28;20045;-74
2022/05/31 09:46:55;;;;;;;10.02;6.78;;;17.90;53.90;;;;;;5058433;28;20048;-76
2022/05/31 09:49:36;;;;;;;7.07;6.15;;;18.10;51.40;;;;;;5041800;28;20052;-74
2022/05/31 09:52:04;;;;;;;9.23;6.55;;;18.20;53.90;;;;;;5058391;28;20093;-75
2022/05/31 09:57:21;;;;;;;7.93;6.28;;;18.50;54.20;;;;;;5058563;28;20113;-75
2022/05/31 09:59:51;;;;;;;9.45;6.43;;;18.70;53.70;;;;;;5058248;28;20036;-75
2022/05/31 10:02:25;;;;;;;8.13;6.50;;;18.70;54.80;;;;;;5041414;28;20056;-76
2022/05/31 10:05:20;;;;;;;11.02;6.32;;;18.50;51.00;;;;;;5041843;28;20223;-76
2022/05/31 10:07:47;;;;;;;7.07;5.85;;;18.40;53.10;;;;;;5043796;28;20133;-76
2022/05/31 10:10:15;;;;;;;8.82;7.32;;;18.10;54.00;;;;;;5041505;28;20090;-75
2022/05/31 10:12:54;;;;;;;9.48;6.40;;;18.00;55.10;;;;;;5058009;28;20078;-74
2022/05/31 10:15:48;;;;;;;11.68;6.95;;;18.10;55.00;;;;;;5041543;28;20048;-75
2022/05/31 10:18:28;;;;;;;9.65;5.95;;;18.00;53.60;;;;;;5057745;28;20071;-75
2022/05/31 10:21:01;;;;;;;9.93;6.10;;;18.00;54.50;;;;;;5057869;28;20066;-74
2022/05/31 10:23:45;;;;;;;9.03;6.37;;;17.80;54.00;;;;;;5057821;28;20040;-77
2022/05/31 10:26:26;;;;;;;10.00;6.78;;;17.70;52.30;;;;;;5041106;28;20036;-75
2022/05/31 10:29:03;;;;;;;8.88;6.70;;;17.60;54.30;;;;;;5057811;28;20076;-74
2022/05/31 10:31:35;;;;;;;7.22;5.93;;;17.60;53.50;;;;;;5057730;28;20506;-74
2022/05/31 10:34:24;;;;;;;9.05;6.15;;;17.70;54.80;;;;;;5057488;28;20481;-74
2022/05/31 10:37:01;;;;;;;9.35;6.25;;;17.90;54.00;;;;;;5057437;28;20051;-75
2022/05/31 10:39:31;;;;;;;11.90;7.00;;;18.00;55.00;;;;;;5057437;28;20076;-75
2022/05/31 10:42:00;;;;;;;10.32;6.50;;;18.10;53.80;;;;;;5057379;28;20040;-76
2022/05/31 10:44:40;;;;;;;10.63;6.22;;;18.20;52.20;;;;;;5057372;28;20049;-73
2022/05/31 10:47:12;;;;;;;10.90;7.10;;;18.20;52.10;;;;;;5040678;28;20083;-75
2022/05/31 10:49:40;;;;;;;8.40;5.75;;;18.20;51.60;;;;;;5057134;28;20040;-75
2022/05/31 10:52:29;;;;;;;11.02;7.45;;;18.00;51.00;;;;;;5024325;28;20040;-75
2022/05/31 10:55:10;;;;;;;8.27;5.63;;;17.90;50.10;;;;;;5057122;28;20128;-73
2022/05/31 10:57:45;;;;;;;7.20;6.05;;;17.90;52.00;;;;;;5057184;28;20043;-75
2022/05/31 11:00:32;;;;;;;9.35;6.30;;;17.80;51.10;;;;;;5057358;28;20036;-73
2022/05/31 11:03:10;;;;;;;13.15;6.72;;;17.70;49.30;;;;;;5056978;28;20064;-74
2022/05/31 11:06:10;;;;;;;9.00;5.13;;;17.60;47.80;;;;;;5056942;28;20044;-74
2022/05/31 11:12:12;;;;;;;7.75;5.25;;;17.30;48.60;;;;;;5056719;28;20048;-73
2022/05/31 11:14:44;;;;;;;9.13;5.05;;;17.10;50.10;;;;;;5056941;28;20071;-77
2022/05/31 11:17:41;;;;;;;9.70;5.57;;;17.00;51.50;;;;;;5057097;28;20137;-76
2022/05/31 11:20:31;;;;;;;9.07;5.15;;;16.90;50.10;;;;;;5056762;28;20120;-75
2022/05/31 11:23:34;;;;;;;8.20;5.28;;;16.70;51.00;;;;;;5040145;28;20459;-76
2022/05/31 11:26:09;;;;;;;8.23;4.50;;;16.70;51.10;;;;;;5056530;28;20040;-75
2022/05/31 11:28:46;;;;;;;6.47;5.10;;;16.70;51.90;;;;;;5056779;28;20499;-74
2022/05/31 11:31:30;;;;;;;6.43;5.47;;;16.70;51.90;;;;;;5056338;28;20527;-75
2022/05/31 11:34:15;;;;;;;;;;;16.70;52.70;;;;;;5056831;28;20502;-74
2022/05/31 11:37:28;;;;;;;7.75;5.32;;;16.60;49.70;;;;;;5039685;28;19920;-76
2022/05/31 11:40:13;;;;;;;8.45;4.85;;;16.70;51.80;;;;;;4976684;28;20125;-74
2022/05/31 11:42:41;;;;;;;8.25;5.85;;;16.80;49.80;;;;;;5056265;28;20044;-75
2022/05/31 11:45:25;;;;;;;8.70;5.57;;;16.70;49.90;;;;;;5056400;28;20051;-77
2022/05/31 11:48:12;;;;;;;8.43;4.80;;;16.60;50.90;;;;;;5056163;28;20443;-76
2022/05/31 11:50:56;;;;;;;11.13;5.60;;;16.50;49.20;;;;;;5056026;28;20040;-77
2022/05/31 11:53:49;;;;;;;7.53;5.57;;;16.50;50.80;;;;;;5039493;28;20045;-77
2022/05/31 11:56:20;;;;;;;8.75;6.05;;;16.50;50.60;;;;;;5055844;28;20041;-76
2022/05/31 11:59:06;;;;;;;10.63;6.75;;;16.20;52.00;;;;;;5056220;28;20062;-76
2022/05/31 12:01:53;;;;;;;6.93;5.05;;;16.00;55.60;;;;;;5055879;28;20111;-74
2022/05/31 12:04:42;;;;;;;10.85;5.18;;;15.50;55.40;;;;;;5055500;28;20048;-78
2022/05/31 12:07:32;;;;;;;12.50;5.03;;;15.30;57.10;;;;;;5055800;28;20044;-74
2022/05/31 12:10:20;;;;;;;9.63;5.18;;;15.10;57.40;;;;;;5056052;28;20040;-76
2022/05/31 12:12:46;;;;;;;6.57;5.70;;;15.00;62.70;;;;;;5039413;28;20087;-74
2022/05/31 12:15:23;;;;;;;10.30;6.03;;;14.90;62.60;;;;;;5039042;28;20416;-73
2022/05/31 12:17:56;;;;;;;10.25;6.70;;;14.80;65.10;;;;;;5056063;28;20043;-79
2022/05/31 12:20:37;;;;;;;10.30;7.65;;;14.80;65.30;;;;;;5055545;28;20481;-76
2022/05/31 12:23:48;;;;;;;9.60;7.60;;;14.80;66.00;;;;;;5039121;28;20435;-75
2022/05/31 12:26:49;;;;;;;10.18;6.68;;;14.80;69.20;;;;;;5051679;28;20057;-75
2022/05/31 12:29:32;;;;;;;8.23;6.78;;;14.80;69.20;;;;;;5044659;28;20056;-75
2022/05/31 12:32:20;;;;;;;9.52;6.55;;;14.80;69.40;;;;;;5055522;28;20048;-74
2022/05/31 12:34:46;;;;;;;9.13;7.05;;;14.90;70.30;;;;;;5055412;28;20037;-77
2022/05/31 12:37:13;;;;;;;5.75;3.88;;;14.90;69.30;;;;;;5055270;28;20040;-77
2022/05/31 12:39:44;;;;;;;7.05;4.32;;;14.90;67.40;;;;;;5038567;28;20503;-76
2022/05/31 12:42:13;;;;;;;6.05;4.88;;;15.00;68.20;;;;;;5055207;28;20041;-76
2022/05/31 12:44:40;;;;;;;7.75;4.80;;;15.00;68.50;;;;;;5038583;28;20036;-77
2022/05/31 12:47:13;;;;;;;9.02;6.07;;;15.10;69.00;;;;;;5055471;28;20060;-76
2022/05/31 12:49:53;;;;;;;8.18;5.45;;;15.20;69.40;;;;;;5055213;28;20123;-77
2022/05/31 12:52:36;;;;;;;6.57;5.60;;;15.20;70.10;;;;;;5055119;28;20468;-76
2022/05/31 12:55:04;;;;;;;8.02;5.82;;;15.30;70.10;;;;;;5055352;28;20491;-78
2022/05/31 13:00:42;;;;;;;6.88;5.30;;;15.50;70.30;;;;;;5054953;28;20082;-74
2022/05/31 13:03:32;;;;;;;8.80;5.20;;;15.50;70.80;;;;;;5054762;28;20056;-77
2022/05/31 13:06:04;;;;;;;5.88;4.82;;;15.60;70.20;;;;;;5054994;28;20040;-75
2022/05/31 13:08:59;;;;;;;7.03;5.13;;;15.70;69.40;;;;;;5055228;28;20427;-75
2022/05/31 13:20:11;;;;;;;9.45;7.90;;;15.50;67.10;;;;;;5058847;28;20047;-75
2022/05/31 13:22:38;;;;;;;15.30;9.23;;;15.40;66.40;;;;;;5058951;28;20051;-74
2022/05/31 13:25:22;;;;;;;17.67;9.88;;;15.20;67.30;;;;;;5058721;28;20052;-73
2022/05/31 13:27:55;;;;;;;14.43;8.13;;;15.00;69.40;;;;;;5059080;28;20044;-71
2022/05/31 13:30:24;;;;;;;14.13;10.90;;;14.70;70.00;;;;;;5059021;28;20048;-76
2022/05/31 13:32:50;;;;;;;11.15;10.05;;;14.50;71.00;;;;;;5058669;28;20041;-72
2022/05/31 13:35:26;;;;;;;10.40;9.35;;;14.40;71.40;;;;;;5042049;28;20037;-73
2022/05/31 13:37:59;;;;;;;8.98;7.07;;;14.30;72.50;;;;;;5058594;28;20036;-73
2022/05/31 13:40:42;;;;;;;8.73;7.82;;;14.20;73.40;;;;;;5058537;28;20083;-75
2022/05/31 13:43:31;;;;;;;11.20;9.30;;;14.00;73.00;;;;;;5058817;28;20119;-74
2022/05/31 13:46:02;;;;;;;9.30;8.40;;;14.00;72.90;;;;;;5058311;28;20044;-76
2022/05/31 13:48:36;;;;;;;11.85;9.52;;;14.00;73.20;;;;;;5058427;28;20041;-74
2022/05/31 13:51:06;;;;;;;11.75;9.23;;;14.00;73.60;;;;;;5041921;28;20051;-73
2022/05/31 13:53:40;;;;;;;15.13;11.35;;;14.00;74.70;;;;;;5058556;28;20392;-75
2022/05/31 13:56:05;;;;;;;;;;;14.00;74.20;;;;;;5058927;28;20037;-77